Covington, Ohio
Current Conditions -  °F | °C
As of 5:35 AM on Thursday 27 Nov 2014 (Local Time) from KVES Reporting Station
Overcast Overcast  
Wind Chill: 20°   Ceiling: 1100
Heat Index: 28°   Visibility: 10mi
Dew Point: 28°   Wind: 8mph
Humidity: 100%   Direction: 330°NNW
Pressure: 30.13"   Gusts: NA
Location:  40.12°N, 84.35°W
Report Text: KVES 271035Z AUTO 33007KT 10SM BKN011 OVC034 M02/M02 A3013 RMK AO2
Loading
Personal Weather Stations






























Interactive Weather Map New forecast layout! Learn more

10-Day Weather Forecast

Advertisements
Track Severe Weather on mobile